sensor_id;sensor_type;location;lat;lon;timestamp;P1;durP1;ratioP1;P2;durP2;ratioP2
28724;SDS011;43472;48.980;9.646;2022-11-11T00:04:40;7.75;;;3.70;;
28724;SDS011;43472;48.980;9.646;2022-11-11T00:09:42;7.78;;;4.30;;
28724;SDS011;43472;48.980;9.646;2022-11-11T00:14:44;13.80;;;6.10;;
28724;SDS011;43472;48.980;9.646;2022-11-11T00:19:46;33.83;;;9.50;;
28724;SDS011;43472;48.980;9.646;2022-11-11T00:25:08;63.70;;;8.43;;
28724;SDS011;43472;48.980;9.646;2022-11-11T00:30:10;26.13;;;5.85;;
28724;SDS011;43472;48.980;9.646;2022-11-11T00:35:12;13.40;;;5.03;;
28724;SDS011;43472;48.980;9.646;2022-11-11T00:40:32;13.65;;;5.45;;
28724;SDS011;43472;48.980;9.646;2022-11-11T00:45:34;24.65;;;6.28;;
28724;SDS011;43472;48.980;9.646;2022-11-11T00:50:36;16.40;;;6.63;;
28724;SDS011;43472;48.980;9.646;2022-11-11T00:55:58;15.32;;;7.53;;
28724;SDS011;43472;48.980;9.646;2022-11-11T01:01:00;4.82;;;3.63;;
28724;SDS011;43472;48.980;9.646;2022-11-11T01:06:02;4.88;;;3.40;;
28724;SDS011;43472;48.980;9.646;2022-11-11T01:11:17;6.15;;;3.53;;
28724;SDS011;43472;48.980;9.646;2022-11-11T01:16:21;5.57;;;2.50;;
28724;SDS011;43472;48.980;9.646;2022-11-11T01:21:25;21.00;;;9.52;;
28724;SDS011;43472;48.980;9.646;2022-11-11T01:26:27;39.30;;;16.55;;
28724;SDS011;43472;48.980;9.646;2022-11-11T01:31:31;40.85;;;15.77;;
28724;SDS011;43472;48.980;9.646;2022-11-11T01:36:33;32.67;;;12.82;;
28724;SDS011;43472;48.980;9.646;2022-11-11T01:41:35;5.03;;;3.22;;
28724;SDS011;43472;48.980;9.646;2022-11-11T01:46:41;17.98;;;7.22;;
28724;SDS011;43472;48.980;9.646;2022-11-11T02:02:47;10.15;;;5.75;;
28724;SDS011;43472;48.980;9.646;2022-11-11T02:07:55;18.40;;;6.05;;
28724;SDS011;43472;48.980;9.646;2022-11-11T02:12:59;8.95;;;5.03;;
28724;SDS011;43472;48.980;9.646;2022-11-11T02:18:20;10.48;;;5.07;;
28724;SDS011;43472;48.980;9.646;2022-11-11T02:23:27;6.40;;;4.15;;
28724;SDS011;43472;48.980;9.646;2022-11-11T02:28:44;9.70;;;4.93;;
28724;SDS011;43472;48.980;9.646;2022-11-11T02:33:46;8.82;;;3.97;;
28724;SDS011;43472;48.980;9.646;2022-11-11T02:38:48;9.20;;;3.38;;
28724;SDS011;43472;48.980;9.646;2022-11-11T02:43:50;6.68;;;3.00;;
28724;SDS011;43472;48.980;9.646;2022-11-11T02:48:52;7.40;;;3.47;;
28724;SDS011;43472;48.980;9.646;2022-11-11T02:53:54;33.58;;;10.45;;
28724;SDS011;43472;48.980;9.646;2022-11-11T02:58:59;36.20;;;14.05;;
28724;SDS011;43472;48.980;9.646;2022-11-11T03:04:01;29.10;;;10.43;;
28724;SDS011;43472;48.980;9.646;2022-11-11T03:09:03;17.27;;;7.25;;
28724;SDS011;43472;48.980;9.646;2022-11-11T03:14:05;19.05;;;8.45;;
28724;SDS011;43472;48.980;9.646;2022-11-11T03:19:08;13.65;;;7.22;;
28724;SDS011;43472;48.980;9.646;2022-11-11T03:24:10;9.63;;;4.22;;
28724;SDS011;43472;48.980;9.646;2022-11-11T03:29:12;5.93;;;3.30;;
28724;SDS011;43472;48.980;9.646;2022-11-11T03:34:14;5.43;;;3.00;;
28724;SDS011;43472;48.980;9.646;2022-11-11T03:39:19;16.80;;;7.45;;
28724;SDS011;43472;48.980;9.646;2022-11-11T03:44:20;19.48;;;7.15;;
28724;SDS011;43472;48.980;9.646;2022-11-11T03:49:22;13.15;;;5.97;;
28724;SDS011;43472;48.980;9.646;2022-11-11T03:54:24;2.53;;;1.90;;
28724;SDS011;43472;48.980;9.646;2022-11-11T03:59:25;5.70;;;2.15;;
28724;SDS011;43472;48.980;9.646;2022-11-11T04:04:27;3.70;;;3.00;;
28724;SDS011;43472;48.980;9.646;2022-11-11T04:09:48;13.95;;;7.30;;
28724;SDS011;43472;48.980;9.646;2022-11-11T04:15:09;16.02;;;6.47;;
28724;SDS011;43472;48.980;9.646;2022-11-11T04:20:29;13.13;;;6.07;;
28724;SDS011;43472;48.980;9.646;2022-11-11T04:25:49;6.15;;;2.30;;
28724;SDS011;43472;48.980;9.646;2022-11-11T04:30:53;17.38;;;4.75;;
28724;SDS011;43472;48.980;9.646;2022-11-11T04:35:55;2.50;;;2.20;;
28724;SDS011;43472;48.980;9.646;2022-11-11T04:40:57;3.50;;;2.38;;
28724;SDS011;43472;48.980;9.646;2022-11-11T04:46:05;7.65;;;4.05;;
28724;SDS011;43472;48.980;9.646;2022-11-11T04:51:06;5.78;;;3.70;;
28724;SDS011;43472;48.980;9.646;2022-11-11T04:56:09;3.90;;;2.65;;
28724;SDS011;43472;48.980;9.646;2022-11-11T05:01:29;7.20;;;2.65;;
28724;SDS011;43472;48.980;9.646;2022-11-11T05:06:50;7.78;;;3.78;;
28724;SDS011;43472;48.980;9.646;2022-11-11T05:12:10;7.85;;;4.18;;
28724;SDS011;43472;48.980;9.646;2022-11-11T05:17:12;4.57;;;2.50;;
28724;SDS011;43472;48.980;9.646;2022-11-11T05:22:36;5.50;;;3.13;;
28724;SDS011;43472;48.980;9.646;2022-11-11T05:27:42;5.82;;;4.25;;
28724;SDS011;43472;48.980;9.646;2022-11-11T05:32:44;6.90;;;2.88;;
28724;SDS011;43472;48.980;9.646;2022-11-11T05:37:46;3.15;;;2.00;;
28724;SDS011;43472;48.980;9.646;2022-11-11T05:43:06;5.47;;;3.20;;
28724;SDS011;43472;48.980;9.646;2022-11-11T05:48:08;9.02;;;3.10;;
28724;SDS011;43472;48.980;9.646;2022-11-11T05:53:09;6.82;;;2.70;;
28724;SDS011;43472;48.980;9.646;2022-11-11T05:58:11;3.85;;;3.00;;
28724;SDS011;43472;48.980;9.646;2022-11-11T06:03:13;11.45;;;5.13;;
28724;SDS011;43472;48.980;9.646;2022-11-11T06:08:14;7.95;;;4.43;;
28724;SDS011;43472;48.980;9.646;2022-11-11T06:13:16;6.13;;;3.40;;
28724;SDS011;43472;48.980;9.646;2022-11-11T06:18:18;4.40;;;2.80;;
28724;SDS011;43472;48.980;9.646;2022-11-11T06:23:20;6.80;;;3.05;;
28724;SDS011;43472;48.980;9.646;2022-11-11T06:28:23;6.72;;;3.95;;
28724;SDS011;43472;48.980;9.646;2022-11-11T06:33:25;6.70;;;3.65;;
28724;SDS011;43472;48.980;9.646;2022-11-11T06:38:28;7.40;;;3.97;;
28724;SDS011;43472;48.980;9.646;2022-11-11T06:43:30;10.18;;;4.60;;
28724;SDS011;43472;48.980;9.646;2022-11-11T06:48:32;7.00;;;3.40;;
28724;SDS011;43472;48.980;9.646;2022-11-11T06:53:37;11.38;;;7.90;;
28724;SDS011;43472;48.980;9.646;2022-11-11T06:58:39;8.32;;;5.93;;
28724;SDS011;43472;48.980;9.646;2022-11-11T07:03:41;10.50;;;6.70;;
28724;SDS011;43472;48.980;9.646;2022-11-11T07:08:43;17.88;;;9.68;;
28724;SDS011;43472;48.980;9.646;2022-11-11T07:13:45;22.35;;;10.18;;
28724;SDS011;43472;48.980;9.646;2022-11-11T07:18:47;25.73;;;10.50;;
28724;SDS011;43472;48.980;9.646;2022-11-11T07:23:49;26.90;;;13.88;;
28724;SDS011;43472;48.980;9.646;2022-11-11T07:28:51;22.23;;;11.02;;
28724;SDS011;43472;48.980;9.646;2022-11-11T07:33:53;18.73;;;9.32;;
28724;SDS011;43472;48.980;9.646;2022-11-11T07:38:55;17.60;;;7.45;;
28724;SDS011;43472;48.980;9.646;2022-11-11T07:43:56;24.83;;;10.85;;
28724;SDS011;43472;48.980;9.646;2022-11-11T07:48:58;21.10;;;10.65;;
28724;SDS011;43472;48.980;9.646;2022-11-11T07:54:00;27.33;;;10.57;;
28724;SDS011;43472;48.980;9.646;2022-11-11T07:59:02;20.00;;;9.35;;
28724;SDS011;43472;48.980;9.646;2022-11-11T08:04:04;49.17;;;18.15;;
28724;SDS011;43472;48.980;9.646;2022-11-11T08:09:06;32.88;;;12.80;;
28724;SDS011;43472;48.980;9.646;2022-11-11T08:14:08;15.90;;;7.97;;
28724;SDS011;43472;48.980;9.646;2022-11-11T08:19:10;18.48;;;9.00;;
28724;SDS011;43472;48.980;9.646;2022-11-11T08:24:12;35.15;;;14.43;;
28724;SDS011;43472;48.980;9.646;2022-11-11T08:29:34;188.68;;;66.78;;
28724;SDS011;43472;48.980;9.646;2022-11-11T08:34:35;86.88;;;31.33;;
28724;SDS011;43472;48.980;9.646;2022-11-11T08:39:37;40.17;;;16.25;;
28724;SDS011;43472;48.980;9.646;2022-11-11T08:44:39;34.17;;;13.80;;
28724;SDS011;43472;48.980;9.646;2022-11-11T08:49:40;26.77;;;12.32;;
28724;SDS011;43472;48.980;9.646;2022-11-11T08:54:42;26.70;;;13.50;;
28724;SDS011;43472;48.980;9.646;2022-11-11T08:59:44;24.13;;;10.95;;
28724;SDS011;43472;48.980;9.646;2022-11-11T09:04:46;22.00;;;9.70;;
28724;SDS011;43472;48.980;9.646;2022-11-11T09:09:55;10.77;;;6.00;;
28724;SDS011;43472;48.980;9.646;2022-11-11T09:14:57;9.60;;;5.22;;
28724;SDS011;43472;48.980;9.646;2022-11-11T09:19:58;9.52;;;4.72;;
28724;SDS011;43472;48.980;9.646;2022-11-11T09:25:00;8.82;;;3.53;;
28724;SDS011;43472;48.980;9.646;2022-11-11T09:30:03;4.50;;;3.33;;
28724;SDS011;43472;48.980;9.646;2022-11-11T09:35:05;10.55;;;3.05;;
28724;SDS011;43472;48.980;9.646;2022-11-11T09:40:15;7.07;;;3.25;;
28724;SDS011;43472;48.980;9.646;2022-11-11T09:51:14;7.68;;;4.68;;
28724;SDS011;43472;48.980;9.646;2022-11-11T09:56:21;6.82;;;4.45;;
28724;SDS011;43472;48.980;9.646;2022-11-11T10:01:49;8.15;;;4.55;;
28724;SDS011;43472;48.980;9.646;2022-11-11T10:06:59;12.02;;;4.53;;
28724;SDS011;43472;48.980;9.646;2022-11-11T10:12:14;11.20;;;4.32;;
28724;SDS011;43472;48.980;9.646;2022-11-11T10:23:07;14.02;;;4.80;;
28724;SDS011;43472;48.980;9.646;2022-11-11T10:28:17;8.80;;;3.90;;
28724;SDS011;43472;48.980;9.646;2022-11-11T10:33:23;9.18;;;3.60;;
28724;SDS011;43472;48.980;9.646;2022-11-11T10:38:41;5.88;;;3.63;;
28724;SDS011;43472;48.980;9.646;2022-11-11T10:43:52;13.20;;;6.57;;
28724;SDS011;43472;48.980;9.646;2022-11-11T10:48:55;14.38;;;8.18;;
28724;SDS011;43472;48.980;9.646;2022-11-11T10:54:15;8.40;;;4.25;;
28724;SDS011;43472;48.980;9.646;2022-11-11T10:59:23;8.80;;;3.50;;
28724;SDS011;43472;48.980;9.646;2022-11-11T11:04:36;5.50;;;3.55;;
28724;SDS011;43472;48.980;9.646;2022-11-11T11:09:47;8.93;;;3.80;;
28724;SDS011;43472;48.980;9.646;2022-11-11T11:15:10;7.10;;;3.42;;
28724;SDS011;43472;48.980;9.646;2022-11-11T11:20:18;9.02;;;3.45;;
28724;SDS011;43472;48.980;9.646;2022-11-11T11:25:21;5.65;;;2.70;;
28724;SDS011;43472;48.980;9.646;2022-11-11T11:30:24;7.22;;;2.00;;
28724;SDS011;43472;48.980;9.646;2022-11-11T11:35:43;2.88;;;1.55;;
28724;SDS011;43472;48.980;9.646;2022-11-11T11:45:53;3.53;;;1.50;;
28724;SDS011;43472;48.980;9.646;2022-11-11T11:51:10;3.15;;;1.83;;
28724;SDS011;43472;48.980;9.646;2022-11-11T11:56:34;5.55;;;2.00;;
28724;SDS011;43472;48.980;9.646;2022-11-11T12:22:53;3.38;;;1.90;;
28724;SDS011;43472;48.980;9.646;2022-11-11T12:44:11;7.57;;;2.30;;
28724;SDS011;43472;48.980;9.646;2022-11-11T13:00:23;11.43;;;3.67;;
28724;SDS011;43472;48.980;9.646;2022-11-11T13:16:26;6.45;;;3.25;;
28724;SDS011;43472;48.980;9.646;2022-11-11T13:21:31;6.10;;;2.80;;
28724;SDS011;43472;48.980;9.646;2022-11-11T13:26:36;7.05;;;3.00;;
28724;SDS011;43472;48.980;9.646;2022-11-11T13:31:43;9.70;;;4.13;;
28724;SDS011;43472;48.980;9.646;2022-11-11T13:36:48;9.50;;;6.20;;
28724;SDS011;43472;48.980;9.646;2022-11-11T13:41:54;7.75;;;5.05;;
28724;SDS011;43472;48.980;9.646;2022-11-11T13:47:03;12.40;;;6.03;;
28724;SDS011;43472;48.980;9.646;2022-11-11T13:52:18;4.30;;;3.22;;
28724;SDS011;43472;48.980;9.646;2022-11-11T13:57:28;10.02;;;3.28;;
28724;SDS011;43472;48.980;9.646;2022-11-11T14:02:33;9.27;;;3.17;;
28724;SDS011;43472;48.980;9.646;2022-11-11T14:12:49;5.72;;;3.40;;
28724;SDS011;43472;48.980;9.646;2022-11-11T14:17:52;8.23;;;4.95;;
28724;SDS011;43472;48.980;9.646;2022-11-11T14:22:53;9.23;;;4.38;;
28724;SDS011;43472;48.980;9.646;2022-11-11T14:27:55;11.50;;;3.75;;
28724;SDS011;43472;48.980;9.646;2022-11-11T14:33:00;13.52;;;5.03;;
28724;SDS011;43472;48.980;9.646;2022-11-11T14:38:26;9.40;;;4.25;;
28724;SDS011;43472;48.980;9.646;2022-11-11T14:53:52;5.35;;;3.13;;
28724;SDS011;43472;48.980;9.646;2022-11-11T14:58:55;14.25;;;7.22;;
28724;SDS011;43472;48.980;9.646;2022-11-11T15:04:05;6.70;;;3.70;;
28724;SDS011;43472;48.980;9.646;2022-11-11T15:20:22;5.35;;;3.65;;
28724;SDS011;43472;48.980;9.646;2022-11-11T15:41:00;6.30;;;3.80;;
28724;SDS011;43472;48.980;9.646;2022-11-11T15:46:03;6.28;;;4.05;;
28724;SDS011;43472;48.980;9.646;2022-11-11T15:56:30;6.25;;;2.88;;
28724;SDS011;43472;48.980;9.646;2022-11-11T16:01:32;7.90;;;5.20;;
28724;SDS011;43472;48.980;9.646;2022-11-11T16:06:34;7.03;;;3.80;;
28724;SDS011;43472;48.980;9.646;2022-11-11T16:11:37;9.98;;;6.30;;
28724;SDS011;43472;48.980;9.646;2022-11-11T16:16:40;7.00;;;4.50;;
28724;SDS011;43472;48.980;9.646;2022-11-11T16:21:53;9.93;;;5.38;;
28724;SDS011;43472;48.980;9.646;2022-11-11T16:27:01;6.32;;;3.80;;
28724;SDS011;43472;48.980;9.646;2022-11-11T16:37:24;9.15;;;3.03;;
28724;SDS011;43472;48.980;9.646;2022-11-11T16:42:27;9.10;;;2.53;;
28724;SDS011;43472;48.980;9.646;2022-11-11T16:52:47;11.10;;;4.53;;
28724;SDS011;43472;48.980;9.646;2022-11-11T16:57:58;10.25;;;6.38;;
28724;SDS011;43472;48.980;9.646;2022-11-11T17:13:40;28.83;;;15.60;;
28724;SDS011;43472;48.980;9.646;2022-11-11T17:18:43;18.05;;;9.73;;
28724;SDS011;43472;48.980;9.646;2022-11-11T17:23:45;15.80;;;7.07;;
28724;SDS011;43472;48.980;9.646;2022-11-11T17:28:46;9.13;;;5.60;;
28724;SDS011;43472;48.980;9.646;2022-11-11T17:33:48;8.60;;;4.88;;
28724;SDS011;43472;48.980;9.646;2022-11-11T17:38:50;12.77;;;7.35;;
28724;SDS011;43472;48.980;9.646;2022-11-11T17:43:52;18.33;;;9.65;;
28724;SDS011;43472;48.980;9.646;2022-11-11T17:48:54;14.60;;;7.88;;
28724;SDS011;43472;48.980;9.646;2022-11-11T17:53:56;16.05;;;8.63;;
28724;SDS011;43472;48.980;9.646;2022-11-11T17:58:59;20.02;;;6.72;;
28724;SDS011;43472;48.980;9.646;2022-11-11T18:04:01;14.50;;;7.25;;
28724;SDS011;43472;48.980;9.646;2022-11-11T18:09:04;9.02;;;5.65;;
28724;SDS011;43472;48.980;9.646;2022-11-11T18:14:07;10.65;;;5.35;;
28724;SDS011;43472;48.980;9.646;2022-11-11T18:19:11;24.25;;;10.45;;
28724;SDS011;43472;48.980;9.646;2022-11-11T18:24:13;22.83;;;11.90;;
28724;SDS011;43472;48.980;9.646;2022-11-11T18:29:15;52.35;;;20.67;;
28724;SDS011;43472;48.980;9.646;2022-11-11T18:34:16;63.50;;;31.05;;
28724;SDS011;43472;48.980;9.646;2022-11-11T18:39:18;60.72;;;27.73;;
28724;SDS011;43472;48.980;9.646;2022-11-11T18:44:20;55.85;;;27.58;;
28724;SDS011;43472;48.980;9.646;2022-11-11T18:49:22;67.85;;;26.15;;
28724;SDS011;43472;48.980;9.646;2022-11-11T18:54:23;73.88;;;25.40;;
28724;SDS011;43472;48.980;9.646;2022-11-11T18:59:30;88.13;;;27.38;;
28724;SDS011;43472;48.980;9.646;2022-11-11T19:04:32;94.22;;;30.63;;
28724;SDS011;43472;48.980;9.646;2022-11-11T19:09:34;94.78;;;41.60;;
28724;SDS011;43472;48.980;9.646;2022-11-11T19:14:36;74.35;;;34.65;;
28724;SDS011;43472;48.980;9.646;2022-11-11T19:19:40;37.28;;;17.52;;
28724;SDS011;43472;48.980;9.646;2022-11-11T19:24:42;22.30;;;12.85;;
28724;SDS011;43472;48.980;9.646;2022-11-11T19:29:43;20.90;;;10.32;;
28724;SDS011;43472;48.980;9.646;2022-11-11T19:34:45;32.75;;;18.92;;
28724;SDS011;43472;48.980;9.646;2022-11-11T19:39:47;21.15;;;11.85;;
28724;SDS011;43472;48.980;9.646;2022-11-11T19:44:49;43.95;;;13.95;;
28724;SDS011;43472;48.980;9.646;2022-11-11T19:50:12;37.83;;;19.77;;
28724;SDS011;43472;48.980;9.646;2022-11-11T19:55:20;39.63;;;21.60;;
28724;SDS011;43472;48.980;9.646;2022-11-11T20:00:22;43.35;;;22.15;;
28724;SDS011;43472;48.980;9.646;2022-11-11T20:05:24;31.77;;;16.88;;
28724;SDS011;43472;48.980;9.646;2022-11-11T20:10:26;36.35;;;17.48;;
28724;SDS011;43472;48.980;9.646;2022-11-11T20:15:27;27.13;;;12.48;;
28724;SDS011;43472;48.980;9.646;2022-11-11T20:20:29;45.72;;;16.60;;
28724;SDS011;43472;48.980;9.646;2022-11-11T20:25:31;18.20;;;9.30;;
28724;SDS011;43472;48.980;9.646;2022-11-11T20:30:36;52.60;;;19.52;;
28724;SDS011;43472;48.980;9.646;2022-11-11T20:35:38;73.80;;;28.25;;
28724;SDS011;43472;48.980;9.646;2022-11-11T20:40:40;51.60;;;23.92;;
28724;SDS011;43472;48.980;9.646;2022-11-11T20:45:42;55.80;;;25.33;;
28724;SDS011;43472;48.980;9.646;2022-11-11T20:50:44;42.17;;;25.58;;
28724;SDS011;43472;48.980;9.646;2022-11-11T20:55:46;22.17;;;13.82;;
28724;SDS011;43472;48.980;9.646;2022-11-11T21:00:48;24.73;;;14.70;;
28724;SDS011;43472;48.980;9.646;2022-11-11T21:05:50;41.20;;;20.38;;
28724;SDS011;43472;48.980;9.646;2022-11-11T21:10:56;41.40;;;20.08;;
28724;SDS011;43472;48.980;9.646;2022-11-11T21:16:04;40.88;;;19.70;;
28724;SDS011;43472;48.980;9.646;2022-11-11T21:21:11;28.88;;;16.10;;
28724;SDS011;43472;48.980;9.646;2022-11-11T21:26:18;22.92;;;11.82;;
28724;SDS011;43472;48.980;9.646;2022-11-11T21:31:21;90.18;;;15.18;;
28724;SDS011;43472;48.980;9.646;2022-11-11T21:36:28;41.67;;;17.85;;
28724;SDS011;43472;48.980;9.646;2022-11-11T21:41:33;29.83;;;14.60;;
28724;SDS011;43472;48.980;9.646;2022-11-11T21:46:37;28.27;;;10.68;;
28724;SDS011;43472;48.980;9.646;2022-11-11T21:51:39;16.85;;;7.18;;
28724;SDS011;43472;48.980;9.646;2022-11-11T21:56:41;57.67;;;15.93;;
28724;SDS011;43472;48.980;9.646;2022-11-11T22:01:43;57.45;;;22.48;;
28724;SDS011;43472;48.980;9.646;2022-11-11T22:06:46;38.10;;;14.32;;
28724;SDS011;43472;48.980;9.646;2022-11-11T22:11:48;12.05;;;7.18;;
28724;SDS011;43472;48.980;9.646;2022-11-11T22:16:50;6.70;;;4.93;;
28724;SDS011;43472;48.980;9.646;2022-11-11T22:21:52;25.27;;;12.73;;
28724;SDS011;43472;48.980;9.646;2022-11-11T22:26:54;25.15;;;13.55;;
28724;SDS011;43472;48.980;9.646;2022-11-11T22:31:56;28.05;;;16.48;;
28724;SDS011;43472;48.980;9.646;2022-11-11T22:36:59;23.50;;;12.48;;
28724;SDS011;43472;48.980;9.646;2022-11-11T22:42:01;17.08;;;9.82;;
28724;SDS011;43472;48.980;9.646;2022-11-11T22:47:03;54.40;;;19.75;;
28724;SDS011;43472;48.980;9.646;2022-11-11T22:52:05;35.58;;;17.38;;
28724;SDS011;43472;48.980;9.646;2022-11-11T22:57:07;29.55;;;11.38;;
28724;SDS011;43472;48.980;9.646;2022-11-11T23:02:09;16.23;;;7.38;;
28724;SDS011;43472;48.980;9.646;2022-11-11T23:07:11;15.55;;;8.65;;
28724;SDS011;43472;48.980;9.646;2022-11-11T23:12:13;22.75;;;6.57;;
28724;SDS011;43472;48.980;9.646;2022-11-11T23:17:15;18.30;;;9.32;;
28724;SDS011;43472;48.980;9.646;2022-11-11T23:22:16;17.27;;;9.35;;
28724;SDS011;43472;48.980;9.646;2022-11-11T23:27:18;17.23;;;8.88;;
28724;SDS011;43472;48.980;9.646;2022-11-11T23:32:20;27.00;;;8.65;;
28724;SDS011;43472;48.980;9.646;2022-11-11T23:37:22;24.42;;;9.50;;
28724;SDS011;43472;48.980;9.646;2022-11-11T23:42:24;19.55;;;8.85;;
28724;SDS011;43472;48.980;9.646;2022-11-11T23:47:25;14.80;;;7.53;;
28724;SDS011;43472;48.980;9.646;2022-11-11T23:52:27;17.98;;;9.15;;
28724;SDS011;43472;48.980;9.646;2022-11-11T23:57:29;15.90;;;6.45;;
